createdAt,value
2023-02-25T00:00:49.044Z,4.30
2023-02-25T00:03:19.725Z,4.27
2023-02-25T00:05:46.442Z,3.70
2023-02-25T00:08:13.116Z,4.03
2023-02-25T00:10:39.717Z,4.57
2023-02-25T00:13:17.867Z,4.70
2023-02-25T00:15:45.176Z,4.23
2023-02-25T00:18:11.834Z,4.17
2023-02-25T00:20:39.791Z,4.60
2023-02-25T00:23:06.412Z,4.63
2023-02-25T00:25:33.118Z,4.40
2023-02-25T00:27:59.762Z,4.00
2023-02-25T00:30:26.668Z,4.10
2023-02-25T00:32:53.375Z,3.20
2023-02-25T00:35:20.083Z,3.90
2023-02-25T00:37:46.754Z,3.63
2023-02-25T00:40:16.405Z,4.77
2023-02-25T00:42:43.118Z,3.70
2023-02-25T00:45:11.120Z,3.73
2023-02-25T00:47:38.475Z,3.67
2023-02-25T00:50:06.704Z,4.33
2023-02-25T00:52:33.827Z,3.87
2023-02-25T00:55:00.643Z,4.00
2023-02-25T00:57:31.135Z,3.60
2023-02-25T00:59:57.746Z,3.57
2023-02-25T01:02:24.539Z,3.30
2023-02-25T01:04:51.273Z,3.83
2023-02-25T01:07:17.990Z,3.80
2023-02-25T01:09:44.642Z,3.67
2023-02-25T01:12:11.591Z,4.77
2023-02-25T01:14:39.108Z,3.53
2023-02-25T01:17:05.763Z,4.00
2023-02-25T01:19:32.400Z,4.57
2023-02-25T01:21:59.466Z,3.67
2023-02-25T01:24:28.043Z,4.10
2023-02-25T01:26:55.891Z,3.97
2023-02-25T01:29:24.480Z,4.03
2023-02-25T01:31:55.117Z,4.00
2023-02-25T01:34:23.459Z,3.97
2023-02-25T01:36:50.374Z,3.93
2023-02-25T01:39:17.614Z,3.17
2023-02-25T01:41:46.535Z,3.93
2023-02-25T01:44:19.418Z,3.53
2023-02-25T01:46:47.626Z,4.20
2023-02-25T01:49:17.496Z,4.13
2023-02-25T01:51:45.992Z,3.70
2023-02-25T01:54:13.437Z,3.47
2023-02-25T01:56:41.664Z,3.80
2023-02-25T01:59:08.697Z,3.90
2023-02-25T02:01:36.919Z,3.17
2023-02-25T02:04:06.330Z,3.73
2023-02-25T02:06:35.015Z,3.57
2023-02-25T02:09:02.374Z,3.17
2023-02-25T02:11:29.890Z,3.57
2023-02-25T02:13:57.341Z,3.20
2023-02-25T02:16:44.756Z,3.10
2023-02-25T02:19:30.273Z,2.67
2023-02-25T02:22:00.813Z,3.47
2023-02-25T02:24:39.352Z,3.10
2023-02-25T02:27:24.660Z,2.70
2023-02-25T02:30:00.584Z,3.80
2023-02-25T02:32:46.052Z,3.17
2023-02-25T02:35:20.145Z,3.03
2023-02-25T02:37:55.107Z,2.70
2023-02-25T02:40:45.056Z,3.73
2023-02-25T02:43:32.815Z,3.73
2023-02-25T02:46:03.533Z,3.10
2023-02-25T02:48:36.820Z,3.43
2023-02-25T02:51:06.761Z,2.90
2023-02-25T02:53:46.744Z,2.73
2023-02-25T02:56:14.831Z,2.90
2023-02-25T02:58:46.657Z,3.10
2023-02-25T03:01:22.326Z,2.80
2023-02-25T03:03:53.388Z,2.50
2023-02-25T03:06:25.279Z,3.07
2023-02-25T03:09:12.482Z,2.60
2023-02-25T03:11:39.260Z,2.70
2023-02-25T03:14:08.475Z,3.00
2023-02-25T03:16:38.623Z,3.17
2023-02-25T03:19:20.506Z,2.80
2023-02-25T03:21:54.854Z,4.47
2023-02-25T03:24:32.382Z,3.13
2023-02-25T03:26:58.997Z,2.40
2023-02-25T03:29:28.629Z,2.90
2023-02-25T03:31:59.201Z,3.60
2023-02-25T03:34:31.379Z,3.03
2023-02-25T03:37:02.683Z,3.10
2023-02-25T03:39:31.004Z,2.77
2023-02-25T03:41:59.479Z,3.00
2023-02-25T03:44:28.634Z,2.80
2023-02-25T03:46:56.063Z,2.40
2023-02-25T03:49:31.155Z,2.67
2023-02-25T03:51:58.697Z,2.63
2023-02-25T03:54:25.744Z,2.70
2023-02-25T03:56:52.456Z,3.63
2023-02-25T03:59:23.798Z,2.83
2023-02-25T04:01:51.732Z,2.93
2023-02-25T04:04:18.999Z,2.83
2023-02-25T04:06:45.948Z,2.80
2023-02-25T04:09:14.128Z,3.47
2023-02-25T04:11:41.945Z,3.20
2023-02-25T04:14:08.637Z,2.83
2023-02-25T04:16:35.864Z,3.60
2023-02-25T04:19:03.382Z,2.93
2023-02-25T04:21:35.429Z,3.13
2023-02-25T04:24:03.039Z,3.30
2023-02-25T04:26:29.780Z,3.27
2023-02-25T04:28:56.464Z,3.20
2023-02-25T04:31:23.378Z,2.97
2023-02-25T04:33:50.676Z,2.60
2023-02-25T04:36:23.320Z,2.90
2023-02-25T04:38:50.393Z,3.10
2023-02-25T04:41:17.143Z,4.10
2023-02-25T04:43:45.445Z,2.80
2023-02-25T04:46:12.758Z,3.10
2023-02-25T04:48:39.642Z,2.60
2023-02-25T04:51:07.019Z,3.90
2023-02-25T04:53:34.251Z,3.63
2023-02-25T04:56:04.599Z,2.87
2023-02-25T04:58:32.119Z,3.33
2023-02-25T05:01:02.145Z,3.13
2023-02-25T05:03:29.047Z,2.90
2023-02-25T05:05:55.907Z,3.10
2023-02-25T05:08:22.742Z,3.93
2023-02-25T05:10:49.768Z,3.20
2023-02-25T05:13:17.497Z,3.07
2023-02-25T05:15:44.295Z,3.50
2023-02-25T05:18:11.131Z,3.90
2023-02-25T05:20:41.657Z,2.90
2023-02-25T05:23:08.603Z,3.07
2023-02-25T05:25:35.195Z,3.77
2023-02-25T05:28:02.316Z,3.03
2023-02-25T05:30:28.975Z,3.47
2023-02-25T05:32:55.719Z,3.30
2023-02-25T05:35:22.398Z,3.80
2023-02-25T05:37:49.083Z,3.13
2023-02-25T05:40:16.688Z,2.73
2023-02-25T05:42:43.562Z,2.93
2023-02-25T05:45:10.275Z,3.50
2023-02-25T05:47:37.395Z,3.80
2023-02-25T05:50:04.338Z,3.43
2023-02-25T05:52:31.363Z,3.33
2023-02-25T05:54:58.107Z,3.57
2023-02-25T05:57:25.702Z,3.03
2023-02-25T05:59:52.349Z,3.23
2023-02-25T06:02:19.015Z,3.07
2023-02-25T06:04:45.833Z,3.27
2023-02-25T06:07:12.482Z,3.20
2023-02-25T06:09:40.139Z,2.97
2023-02-25T06:12:06.830Z,3.10
2023-02-25T06:14:33.486Z,3.33
2023-02-25T06:17:00.166Z,3.13
2023-02-25T06:19:27.018Z,3.60
2023-02-25T06:21:54.915Z,3.83
2023-02-25T06:24:22.321Z,3.00
2023-02-25T06:26:49.055Z,3.03
2023-02-25T06:29:16.139Z,3.10
2023-02-25T06:31:43.495Z,3.20
2023-02-25T06:34:10.524Z,3.03
2023-02-25T06:36:37.222Z,2.50
2023-02-25T06:39:04.519Z,3.43
2023-02-25T06:41:31.602Z,2.87
2023-02-25T06:43:58.373Z,3.87
2023-02-25T06:46:26.689Z,3.57
2023-02-25T06:48:53.676Z,4.03
2023-02-25T06:51:20.328Z,3.03
2023-02-25T06:53:47.766Z,3.43
2023-02-25T06:56:15.301Z,2.97
2023-02-25T06:58:42.460Z,3.07
2023-02-25T07:01:10.091Z,3.10
2023-02-25T07:03:37.076Z,3.40
2023-02-25T07:06:04.054Z,3.50
2023-02-25T07:08:31.323Z,2.80
2023-02-25T07:11:17.009Z,3.60
2023-02-25T07:13:44.511Z,3.10
2023-02-25T07:16:11.730Z,2.97
2023-02-25T07:18:38.475Z,2.80
2023-02-25T07:21:05.511Z,3.33
2023-02-25T07:23:32.201Z,3.00
2023-02-25T07:26:02.307Z,3.20
2023-02-25T07:28:28.948Z,3.03
2023-02-25T07:30:55.712Z,4.20
2023-02-25T07:33:22.466Z,3.43
2023-02-25T07:35:49.654Z,3.60
2023-02-25T07:38:16.986Z,3.07
2023-02-25T07:40:43.611Z,3.00
2023-02-25T07:43:10.190Z,3.13
2023-02-25T07:45:37.084Z,3.57
2023-02-25T07:48:03.936Z,3.40
2023-02-25T07:50:30.600Z,2.40
2023-02-25T07:52:57.406Z,3.20
2023-02-25T07:55:24.613Z,3.40
2023-02-25T07:57:51.258Z,3.33
2023-02-25T08:00:18.141Z,3.30
2023-02-25T08:02:45.350Z,3.30
2023-02-25T08:05:12.129Z,3.80
2023-02-25T08:07:38.769Z,2.57
2023-02-25T08:10:06.105Z,2.73
2023-02-25T08:12:32.779Z,3.80
2023-02-25T08:15:02.166Z,2.77
2023-02-25T08:17:32.631Z,2.93
2023-02-25T08:19:59.264Z,2.60
2023-02-25T08:22:26.217Z,2.60
2023-02-25T08:24:53.411Z,2.50
2023-02-25T08:27:20.099Z,2.50
2023-02-25T08:29:46.734Z,2.77
2023-02-25T08:32:13.487Z,2.40
2023-02-25T08:34:40.437Z,3.17
2023-02-25T08:37:08.895Z,2.87
2023-02-25T08:39:36.018Z,2.97
2023-02-25T08:42:03.029Z,2.83
2023-02-25T08:44:29.745Z,3.07
2023-02-25T08:47:01.503Z,3.00
2023-02-25T08:49:29.156Z,2.57
2023-02-25T08:51:55.837Z,3.43
2023-02-25T08:54:23.109Z,3.00
2023-02-25T08:56:50.450Z,2.60
2023-02-25T08:59:17.222Z,3.30
2023-02-25T09:01:46.833Z,2.43
2023-02-25T09:04:14.948Z,3.43
2023-02-25T09:06:41.696Z,2.80
2023-02-25T09:09:08.442Z,2.57
2023-02-25T09:11:35.397Z,2.50
2023-02-25T09:14:02.054Z,3.30
2023-02-25T09:16:29.602Z,3.07
2023-02-25T09:18:56.329Z,2.83
2023-02-25T09:21:23.725Z,3.00
2023-02-25T09:23:53.919Z,2.90
2023-02-25T09:26:21.678Z,2.87
2023-02-25T09:28:49.509Z,3.87
2023-02-25T09:31:17.030Z,3.13
2023-02-25T09:33:44.251Z,3.03
2023-02-25T09:36:12.581Z,2.20
2023-02-25T09:38:40.695Z,3.17
2023-02-25T09:41:26.324Z,2.13
2023-02-25T09:44:12.005Z,2.23
2023-02-25T09:46:41.654Z,2.90
2023-02-25T09:49:15.582Z,3.10
2023-02-25T09:51:45.841Z,2.80
2023-02-25T09:54:19.619Z,2.30
2023-02-25T09:56:46.493Z,2.90
2023-02-25T09:59:17.390Z,2.80
2023-02-25T10:01:47.762Z,2.93
2023-02-25T10:04:39.398Z,2.50
2023-02-25T10:07:08.701Z,2.80
2023-02-25T10:09:56.541Z,2.30
2023-02-25T10:12:26.282Z,1.90
2023-02-25T10:15:00.941Z,2.67
2023-02-25T10:17:46.755Z,2.47
2023-02-25T10:20:19.864Z,2.47
2023-02-25T10:22:52.142Z,2.50
2023-02-25T10:25:22.471Z,2.90
2023-02-25T10:28:01.174Z,2.67
2023-02-25T10:30:46.618Z,1.90
2023-02-25T10:33:21.895Z,2.30
2023-02-25T10:35:51.757Z,2.77
2023-02-25T10:38:18.470Z,2.63
2023-02-25T10:40:45.129Z,2.60
2023-02-25T10:43:21.780Z,2.10
2023-02-25T10:45:55.263Z,2.43
2023-02-25T10:48:23.613Z,2.20
2023-02-25T10:51:05.787Z,2.60
2023-02-25T10:53:35.553Z,3.00
2023-02-25T10:56:02.891Z,2.83
2023-02-25T10:58:52.868Z,2.30
2023-02-25T11:01:20.703Z,2.27
2023-02-25T11:03:54.402Z,2.97
2023-02-25T11:06:29.164Z,2.30
2023-02-25T11:08:58.616Z,3.13
2023-02-25T11:11:31.853Z,2.10
2023-02-25T11:14:00.646Z,3.43
2023-02-25T11:16:28.251Z,2.27
2023-02-25T11:18:56.831Z,3.03
2023-02-25T11:21:37.096Z,2.17
2023-02-25T11:24:08.873Z,2.10
2023-02-25T11:26:37.969Z,1.90
2023-02-25T11:29:10.507Z,2.53
2023-02-25T11:31:40.750Z,1.60
2023-02-25T11:34:16.257Z,2.90
2023-02-25T11:36:42.882Z,2.33
2023-02-25T11:39:16.304Z,3.20
2023-02-25T11:41:46.731Z,0.93
2023-02-25T11:44:27.391Z,0.80
2023-02-25T11:47:05.352Z,0.97
2023-02-25T11:49:42.610Z,0.77
2023-02-25T11:52:20.965Z,2.00
2023-02-25T11:55:08.936Z,1.83
2023-02-25T11:57:36.190Z,1.93
2023-02-25T12:00:02.872Z,1.83
2023-02-25T12:02:44.454Z,1.40
2023-02-25T12:05:11.104Z,2.03
2023-02-25T12:07:37.638Z,2.20
2023-02-25T12:10:29.649Z,3.63
2023-02-25T12:12:57.134Z,3.00
2023-02-25T12:15:32.883Z,3.37
2023-02-25T12:18:17.533Z,3.67
2023-02-25T12:21:02.770Z,2.60
2023-02-25T12:23:47.867Z,2.63
2023-02-25T12:26:35.123Z,3.87
2023-02-25T12:29:17.464Z,2.30
2023-02-25T12:32:02.844Z,1.63
2023-02-25T12:34:42.973Z,2.37
2023-02-25T12:37:27.841Z,2.00
2023-02-25T12:40:00.514Z,1.67
2023-02-25T12:42:36.668Z,1.47
2023-02-25T12:45:13.844Z,1.53
2023-02-25T12:47:40.426Z,1.83
2023-02-25T12:50:26.000Z,1.73
2023-02-25T12:53:11.433Z,1.80
2023-02-25T12:55:38.041Z,1.70
2023-02-25T12:58:16.786Z,1.43
2023-02-25T13:00:58.531Z,1.30
2023-02-25T13:03:33.271Z,1.40
2023-02-25T13:06:21.858Z,1.27
2023-02-25T13:09:11.178Z,1.70
2023-02-25T13:12:10.011Z,1.90
2023-02-25T13:14:49.925Z,1.40
2023-02-25T13:17:25.722Z,1.20
2023-02-25T13:20:11.544Z,1.43
2023-02-25T13:22:50.333Z,1.23
2023-02-25T13:25:20.062Z,1.20
2023-02-25T13:28:06.981Z,1.40
2023-02-25T13:30:58.165Z,1.50
2023-02-25T13:34:04.200Z,0.90
2023-02-25T13:36:39.811Z,1.10
2023-02-25T13:39:25.721Z,1.10
2023-02-25T13:41:52.845Z,0.80
2023-02-25T13:44:19.664Z,1.40
2023-02-25T13:47:04.520Z,2.00
2023-02-25T13:49:49.789Z,2.27
2023-02-25T13:52:45.487Z,2.83
2023-02-25T13:55:24.575Z,2.20
2023-02-25T13:57:51.204Z,1.30
2023-02-25T14:00:27.510Z,1.77
2023-02-25T14:03:15.043Z,4.07
2023-02-25T14:05:54.299Z,1.47
2023-02-25T14:08:26.836Z,2.00
2023-02-25T14:10:53.463Z,3.77
2023-02-25T14:13:35.376Z,2.30
2023-02-25T14:16:12.893Z,2.50
2023-02-25T14:18:51.786Z,1.53
2023-02-25T14:21:18.425Z,1.00
2023-02-25T14:23:51.085Z,1.60
2023-02-25T14:26:23.459Z,1.60
2023-02-25T14:28:50.073Z,1.93
2023-02-25T14:31:25.997Z,1.70
2023-02-25T14:33:52.956Z,2.80
2023-02-25T14:36:29.076Z,1.60
2023-02-25T14:38:59.574Z,3.13
2023-02-25T14:41:41.696Z,1.23
2023-02-25T14:44:12.646Z,1.87
2023-02-25T14:46:48.400Z,2.03
2023-02-25T14:49:17.772Z,2.37
2023-02-25T14:51:52.131Z,1.97
2023-02-25T14:54:42.591Z,2.13
2023-02-25T14:57:20.470Z,1.63
2023-02-25T15:00:06.184Z,2.50
2023-02-25T15:02:39.031Z,1.80
2023-02-25T15:05:23.306Z,1.90
2023-02-25T15:07:56.448Z,1.47
2023-02-25T15:10:23.059Z,3.30
2023-02-25T15:13:15.263Z,2.77
2023-02-25T15:16:00.860Z,3.27
2023-02-25T15:18:33.680Z,1.87
2023-02-25T15:21:20.948Z,2.43
2023-02-25T15:23:51.695Z,1.20
2023-02-25T15:26:21.774Z,1.90
2023-02-25T15:28:49.838Z,1.40
2023-02-25T15:31:28.448Z,1.60
2023-02-25T15:34:15.257Z,1.90
2023-02-25T15:36:50.202Z,2.07
2023-02-25T15:39:35.458Z,2.47
2023-02-25T15:42:02.980Z,2.00
2023-02-25T15:44:33.063Z,1.83
2023-02-25T15:47:18.724Z,1.97
2023-02-25T15:49:49.011Z,1.77
2023-02-25T15:52:34.121Z,2.40
2023-02-25T15:55:20.348Z,2.10
2023-02-25T15:57:47.046Z,1.80
2023-02-25T16:00:32.808Z,2.00
2023-02-25T16:03:01.666Z,2.40
2023-02-25T16:05:33.383Z,2.23
2023-02-25T16:08:11.866Z,1.70
2023-02-25T16:10:50.004Z,1.83
2023-02-25T16:13:21.234Z,1.47
2023-02-25T16:15:49.586Z,1.27
2023-02-25T16:18:31.642Z,1.40
2023-02-25T16:21:00.047Z,1.00
2023-02-25T16:23:28.539Z,1.27
2023-02-25T16:25:55.090Z,1.70
2023-02-25T16:28:35.070Z,1.67
2023-02-25T16:31:04.528Z,1.57
2023-02-25T16:33:40.282Z,2.80
2023-02-25T16:36:14.018Z,2.57
2023-02-25T16:38:40.598Z,1.40
2023-02-25T16:41:07.201Z,2.20
2023-02-25T16:43:37.261Z,2.50
2023-02-25T16:46:05.833Z,1.20
2023-02-25T16:48:52.757Z,1.40
2023-02-25T16:51:32.124Z,1.60
2023-02-25T16:54:03.583Z,1.10
2023-02-25T16:56:31.424Z,2.00
2023-02-25T16:58:59.900Z,1.33
2023-02-25T17:01:28.428Z,1.60
2023-02-25T17:04:00.661Z,2.40
2023-02-25T17:06:27.875Z,2.77
2023-02-25T17:08:55.038Z,1.70
2023-02-25T17:11:23.355Z,1.87
2023-02-25T17:13:51.424Z,2.13
2023-02-25T17:16:29.209Z,1.80
2023-02-25T17:18:57.648Z,2.10
2023-02-25T17:21:28.546Z,4.03
2023-02-25T17:23:57.663Z,3.17
2023-02-25T17:26:25.519Z,2.57
2023-02-25T17:28:53.864Z,3.13
2023-02-25T17:31:26.875Z,3.60
2023-02-25T17:33:55.559Z,4.97
2023-02-25T17:36:24.525Z,3.90
2023-02-25T17:38:58.751Z,1.93
2023-02-25T17:41:25.727Z,4.23
2023-02-25T17:43:52.707Z,5.43
2023-02-25T17:46:28.726Z,3.50
2023-02-25T17:48:57.045Z,4.30
2023-02-25T17:51:28.532Z,3.33
2023-02-25T17:53:56.820Z,3.23
2023-02-25T17:56:25.058Z,2.60
2023-02-25T17:58:52.895Z,2.80
2023-02-25T18:01:28.885Z,3.43
2023-02-25T18:03:55.697Z,3.77
2023-02-25T18:06:33.347Z,3.23
2023-02-25T18:09:02.749Z,3.63
2023-02-25T18:11:37.821Z,3.03
2023-02-25T18:14:40.053Z,3.40
2023-02-25T18:17:26.921Z,3.63
2023-02-25T18:19:56.529Z,2.30
2023-02-25T18:22:46.604Z,2.87
2023-02-25T18:25:32.323Z,2.30
2023-02-25T18:27:58.957Z,2.20
2023-02-25T18:30:26.959Z,2.03
2023-02-25T18:32:54.130Z,3.13
2023-02-25T18:35:21.382Z,2.40
2023-02-25T18:37:49.799Z,1.80
2023-02-25T18:40:20.209Z,1.77
2023-02-25T18:42:46.850Z,1.50
2023-02-25T18:45:17.894Z,1.83
2023-02-25T18:47:44.863Z,1.90
2023-02-25T18:50:11.628Z,1.87
2023-02-25T18:52:38.550Z,2.27
2023-02-25T18:55:06.280Z,2.40
2023-02-25T18:57:33.103Z,1.83
2023-02-25T18:59:59.867Z,1.77
2023-02-25T19:02:33.860Z,1.47
2023-02-25T19:05:01.337Z,1.70
2023-02-25T19:07:29.955Z,2.23
2023-02-25T19:09:56.789Z,2.47
2023-02-25T19:12:24.784Z,1.37
2023-02-25T19:15:17.960Z,1.50
2023-02-25T19:17:44.607Z,1.70
2023-02-25T19:20:12.914Z,1.90
2023-02-25T19:22:46.937Z,1.87
2023-02-25T19:25:24.794Z,1.80
2023-02-25T19:27:52.112Z,1.97
2023-02-25T19:30:19.845Z,2.33
2023-02-25T19:32:46.589Z,1.90
2023-02-25T19:35:13.225Z,1.90
2023-02-25T19:37:40.939Z,1.63
2023-02-25T19:40:10.402Z,1.50
2023-02-25T19:42:37.814Z,1.93
2023-02-25T19:45:06.369Z,1.80
2023-02-25T19:47:32.979Z,2.03
2023-02-25T19:53:35.861Z,2.10
2023-02-25T19:56:03.452Z,1.30
2023-02-25T19:58:32.017Z,2.50
2023-02-25T20:01:02.899Z,1.80
2023-02-25T20:03:29.685Z,1.70
2023-02-25T20:05:56.223Z,2.07
2023-02-25T20:08:23.052Z,1.93
2023-02-25T20:10:49.709Z,2.47
2023-02-25T20:13:17.840Z,2.50
2023-02-25T20:15:44.420Z,2.80
2023-02-25T20:18:10.976Z,2.40
2023-02-25T20:20:40.489Z,2.30
2023-02-25T20:23:09.969Z,2.63
2023-02-25T20:25:36.733Z,3.10
2023-02-25T20:28:04.893Z,3.13
2023-02-25T20:30:32.768Z,3.60
2023-02-25T20:33:00.121Z,3.30
2023-02-25T20:35:26.914Z,2.87
2023-02-25T20:37:59.344Z,3.43
2023-02-25T20:40:26.281Z,2.73
2023-02-25T20:42:53.381Z,3.07
2023-02-25T20:45:20.163Z,3.13
2023-02-25T20:47:46.905Z,3.33
2023-02-25T20:50:15.459Z,2.77
2023-02-25T20:52:42.504Z,3.07
2023-02-25T20:55:09.412Z,3.00
2023-02-25T20:57:36.122Z,3.67
2023-02-25T21:00:02.758Z,2.80
2023-02-25T21:02:29.793Z,3.30
2023-02-25T21:04:56.449Z,3.83
2023-02-25T21:07:23.053Z,3.10
2023-02-25T21:09:49.774Z,3.20
2023-02-25T21:12:16.367Z,3.33
2023-02-25T21:14:43.291Z,2.77
2023-02-25T21:17:13.596Z,2.80
2023-02-25T21:19:40.639Z,3.27
2023-02-25T21:22:08.032Z,3.13
2023-02-25T21:24:36.699Z,3.30
2023-02-25T21:27:03.883Z,3.80
2023-02-25T21:29:30.468Z,4.37
2023-02-25T21:31:57.110Z,4.10
2023-02-25T21:34:24.180Z,4.33
2023-02-25T21:36:50.829Z,4.40
2023-02-25T21:39:18.327Z,4.07
2023-02-25T21:41:45.084Z,4.23
2023-02-25T21:44:12.321Z,4.27
2023-02-25T21:46:39.048Z,4.70
2023-02-25T21:49:05.749Z,4.10
2023-02-25T21:51:32.379Z,4.20
2023-02-25T21:54:00.353Z,3.70
2023-02-25T21:56:27.457Z,3.83
2023-02-25T21:58:54.782Z,3.87
2023-02-25T22:01:23.308Z,3.67
2023-02-25T22:03:50.417Z,3.50
2023-02-25T22:06:17.032Z,3.17
2023-02-25T22:08:45.611Z,3.33
2023-02-25T22:11:18.459Z,3.23
2023-02-25T22:13:45.222Z,3.17
2023-02-25T22:16:12.533Z,3.07
2023-02-25T22:18:39.355Z,3.00
2023-02-25T22:21:07.566Z,3.43
2023-02-25T22:23:34.381Z,3.37
2023-02-25T22:26:05.403Z,3.03
2023-02-25T22:28:32.235Z,2.90
2023-02-25T22:30:59.045Z,2.87
2023-02-25T22:33:25.741Z,3.23
2023-02-25T22:36:00.026Z,3.13
2023-02-25T22:38:27.522Z,2.70
2023-02-25T22:40:54.682Z,3.63
2023-02-25T22:43:21.453Z,3.30
2023-02-25T22:45:48.108Z,3.23
2023-02-25T22:48:15.216Z,2.73
2023-02-25T22:50:48.652Z,2.77
2023-02-25T22:53:16.726Z,2.60
2023-02-25T22:55:43.692Z,2.87
2023-02-25T22:58:10.611Z,3.07
2023-02-25T23:00:38.965Z,2.77
2023-02-25T23:03:05.763Z,2.90
2023-02-25T23:05:33.565Z,2.93
2023-02-25T23:08:00.762Z,2.60
2023-02-25T23:10:28.481Z,2.63
2023-02-25T23:12:59.256Z,2.70
2023-02-25T23:15:27.577Z,2.70
2023-02-25T23:17:54.883Z,2.17
2023-02-25T23:20:23.050Z,2.07
2023-02-25T23:22:52.850Z,2.20
2023-02-25T23:25:19.941Z,2.80
2023-02-25T23:27:46.829Z,2.40
2023-02-25T23:30:14.139Z,2.27
2023-02-25T23:32:42.159Z,2.37
2023-02-25T23:35:10.808Z,2.10
2023-02-25T23:37:38.584Z,2.10
2023-02-25T23:40:06.335Z,2.20
2023-02-25T23:42:34.060Z,2.60
2023-02-25T23:45:00.758Z,1.97
2023-02-25T23:47:27.449Z,2.40
2023-02-25T23:49:54.219Z,1.50
2023-02-25T23:52:20.839Z,2.23
2023-02-25T23:54:47.419Z,2.10
2023-02-25T23:57:14.115Z,1.93
2023-02-25T23:59:40.732Z,2.10
